»·PEaware :: AAY34 KLAS-KRNO

AAY34 :: KLAS-KRNO

FLIGHT INFORMATION

Flight Status: Arrived
Operator:
Allegiant Air
More flights by this operator :: More flights under this callsign
Pilot: Henderson P. (1210)
Aircraft: AIRBUS A320
(A320)
More flights by this aircraft type
Origin: KLAS McCarran Intl
United States
Destination: KRNO Reno/Tahoe Intl
United States
More flights between these airports :: More routes between these airports
Route: +SHEAD1 KENNO KENNO2
File this flight plan on PilotEdge
Remarks:
Altitude:
(Current/Filed)
28,000ft
Speed:
(Current/Filed)
425kts
Departed: 18-Oct-18 05:43 PM
Arrived: 18-Oct-18 06:39 PM
Distance/Time
Traveled:
300nm/0:55
Distance/Time
To Go:
Arrived

Flight Plot

Page will automatically refresh every two minutes.

Flight plan parsing failed; only flown route is shown


Map Options




Map Legend


Flown Route
Filed Route
Departure Airport
Arrival Airport
Navaid (VOR, NDB)
Fix

Horizontal Profiles

Position Reports

Time Latitude Longitude Heading Altitude Ground
Speed
18-Oct-18 16:57 36.085786 -115.154666 144 2195ft 0kts
18-Oct-18 16:58 36.085786 -115.154666 144 2195ft 0kts
18-Oct-18 16:59 36.085786 -115.154666 144 2195ft 0kts
18-Oct-18 17:00 36.085786 -115.154666 144 2195ft 0kts
18-Oct-18 17:01 36.085786 -115.154666 144 2195ft 0kts
18-Oct-18 17:02 36.085786 -115.154666 144 2195ft 0kts
18-Oct-18 17:03 36.085786 -115.154666 144 2195ft 0kts
18-Oct-18 17:04 36.085786 -115.154666 144 2195ft 0kts
18-Oct-18 17:05 36.085786 -115.154666 144 2195ft 0kts
18-Oct-18 17:06 36.085786 -115.154666 144 2195ft 0kts
18-Oct-18 17:07 36.085786 -115.154666 144 2195ft 0kts
18-Oct-18 17:08 36.085786 -115.154666 144 2195ft 0kts
18-Oct-18 17:09 36.085786 -115.154666 144 2195ft 0kts
18-Oct-18 17:10 36.085786 -115.154666 144 2195ft 0kts
18-Oct-18 17:11 36.085786 -115.154666 144 2195ft 0kts
18-Oct-18 17:12 36.085786 -115.154666 144 2195ft 0kts
18-Oct-18 17:13 36.085786 -115.154666 144 2195ft 0kts
18-Oct-18 17:14 36.085786 -115.154666 144 2195ft 0kts
18-Oct-18 17:15 36.085786 -115.154666 144 2195ft 0kts
18-Oct-18 17:16 36.085786 -115.154666 144 2195ft 0kts
18-Oct-18 17:17 36.085786 -115.154666 144 2195ft 0kts
18-Oct-18 17:18 36.085786 -115.154666 144 2195ft 0kts
18-Oct-18 17:19 36.085786 -115.154666 144 2195ft 0kts
18-Oct-18 17:20 36.085786 -115.154666 144 2195ft 0kts
18-Oct-18 17:21 36.085786 -115.154666 144 2195ft 0kts
18-Oct-18 17:22 36.085786 -115.154666 144 2195ft 0kts
18-Oct-18 17:23 36.085786 -115.154666 144 2195ft 0kts
18-Oct-18 17:24 36.085786 -115.154666 144 2195ft 0kts
18-Oct-18 17:25 36.085786 -115.154666 144 2195ft 0kts
18-Oct-18 17:26 36.085786 -115.154666 144 2195ft 0kts
18-Oct-18 17:27 36.085786 -115.154666 144 2195ft 0kts
18-Oct-18 17:28 36.085786 -115.154666 144 2195ft 0kts
18-Oct-18 17:29 36.085786 -115.154666 144 2195ft 0kts
18-Oct-18 17:30 36.085786 -115.154666 144 2195ft 0kts
18-Oct-18 17:31 36.085786 -115.154666 144 2195ft 0kts
18-Oct-18 17:32 36.085786 -115.154666 144 2195ft 0kts
18-Oct-18 17:33 36.085786 -115.154666 144 2195ft 0kts
18-Oct-18 17:34 36.085786 -115.154666 144 2195ft 0kts
18-Oct-18 17:35 36.086235 -115.155056 144 2195ft 4kts
18-Oct-18 17:36 36.086464 -115.155257 144 2195ft 0kts
18-Oct-18 17:37 36.086464 -115.155257 144 2195ft 0kts
18-Oct-18 17:38 36.085137 -115.156343 212 2195ft 5kts
18-Oct-18 17:39 36.083038 -115.155803 155 2195ft 12kts
18-Oct-18 17:40 36.078578 -115.153245 154 2195ft 22kts
18-Oct-18 17:41 36.077672 -115.145499 94 2195ft 27kts
18-Oct-18 17:42 36.077546 -115.135372 90 2195ft 30kts
18-Oct-18 17:43 36.077554 -115.125319 91 2195ft 27kts
18-Oct-18 17:44 36.076575 -115.121338 212 2195ft 13kts
18-Oct-18 17:45 36.076333 -115.162471 269 3291ft 175kts
18-Oct-18 17:46 36.074699 -115.234373 254 5176ft 244kts
18-Oct-18 17:47 36.013578 -115.281807 199 7015ft 286kts
18-Oct-18 17:48 35.946226 -115.330821 226 7602ft 286kts
18-Oct-18 17:49 35.890284 -115.403727 243 9008ft 294kts
18-Oct-18 17:50 35.887671 -115.504238 274 10883ft 317kts
18-Oct-18 17:51 35.890028 -115.623991 273 11023ft 362kts
18-Oct-18 17:52 35.892217 -115.748872 273 12537ft 369kts
18-Oct-18 17:53 35.894282 -115.877237 273 15448ft 380kts
18-Oct-18 17:54 35.920383 -116.000897 314 17910ft 386kts
18-Oct-18 17:55 36.001030 -116.091355 317 20127ft 398kts
18-Oct-18 17:56 36.082790 -116.186435 316 22136ft 409kts
18-Oct-18 17:57 36.167085 -116.283720 316 23203ft 416kts
18-Oct-18 17:58 36.251238 -116.381330 316 23201ft 415kts
18-Oct-18 17:59 36.335581 -116.479439 316 23202ft 415kts
18-Oct-18 18:00 36.419850 -116.577834 316 24004ft 420kts
18-Oct-18 18:01 36.505825 -116.678495 316 25838ft 424kts
18-Oct-18 18:02 36.594908 -116.771962 326 27949ft 419kts
18-Oct-18 18:03 36.695226 -116.847156 327 28213ft 420kts
18-Oct-18 18:04 36.794988 -116.923414 327 28218ft 421kts
18-Oct-18 18:05 36.894889 -116.999665 327 28247ft 420kts
18-Oct-18 18:06 36.994613 -117.076072 327 28276ft 420kts
18-Oct-18 18:07 37.093919 -117.152374 327 28277ft 419kts
18-Oct-18 18:08 37.193576 -117.229210 327 28277ft 419kts
18-Oct-18 18:09 37.292524 -117.305992 325 28265ft 418kts
18-Oct-18 18:10 37.381800 -117.399519 319 28250ft 418kts
18-Oct-18 18:11 37.470456 -117.494355 319 28256ft 417kts
18-Oct-18 18:12 37.566294 -117.577076 328 28248ft 418kts
18-Oct-18 18:13 37.664960 -117.654982 327 28303ft 418kts
18-Oct-18 18:14 37.763596 -117.733319 327 28309ft 418kts
18-Oct-18 18:15 37.861732 -117.811564 327 28307ft 417kts
18-Oct-18 18:16 37.959894 -117.890054 327 28258ft 417kts
18-Oct-18 18:17 38.057606 -117.968445 327 28236ft 415kts
18-Oct-18 18:18 38.155014 -118.046798 327 28239ft 411kts
18-Oct-18 18:19 38.251790 -118.124949 327 28274ft 416kts
18-Oct-18 18:20 38.349356 -118.203991 327 28299ft 416kts
18-Oct-18 18:21 38.442561 -118.289807 317 28321ft 414kts
18-Oct-18 18:22 38.525195 -118.392986 317 28318ft 414kts
18-Oct-18 18:23 38.607913 -118.495010 317 28261ft 413kts
18-Oct-18 18:24 38.689694 -118.596625 317 28225ft 410kts
18-Oct-18 18:25 38.769181 -118.695581 317 27245ft 391kts
18-Oct-18 18:26 38.845910 -118.791078 317 25421ft 375kts
18-Oct-18 18:27 38.919095 -118.882446 317 23557ft 361kts
18-Oct-18 18:28 38.989954 -118.971224 317 21740ft 351kts
18-Oct-18 18:29 39.059216 -119.058246 317 19956ft 343kts
18-Oct-18 18:30 39.126769 -119.143405 317 18247ft 337kts
18-Oct-18 18:31 39.190449 -119.231746 308 16569ft 337kts
18-Oct-18 18:32 39.244667 -119.329283 307 14648ft 330kts
18-Oct-18 18:33 39.297640 -119.424710 307 12734ft 323kts
18-Oct-18 18:34 39.320351 -119.534083 273 10803ft 320kts
18-Oct-18 18:35 39.323826 -119.644421 273 9994ft 295kts
18-Oct-18 18:36 39.327103 -119.741349 273 9262ft 246kts
18-Oct-18 18:37 39.365737 -119.774875 16 8537ft 171kts
18-Oct-18 18:38 39.408017 -119.769474 7 7121ft 154kts
18-Oct-18 18:39 39.453321 -119.769226 0 5149ft 162kts
18-Oct-18 18:40 39.493401 -119.769261 359 4429ft 110kts
18-Oct-18 18:41 39.503862 -119.771347 311 4429ft 14kts
18-Oct-18 18:42 39.506528 -119.771470 359 4429ft 4kts
18-Oct-18 18:43 39.506871 -119.772228 281 4429ft 0kts
18-Oct-18 18:44 39.506871 -119.772228 281 4429ft 0kts
18-Oct-18 18:45 39.506871 -119.772228 281 4429ft 0kts
18-Oct-18 18:46 39.506871 -119.772228 281 4429ft 0kts
18-Oct-18 18:47 39.506871 -119.772228 281 4429ft 0kts
18-Oct-18 18:48 39.506871 -119.772228 281 4429ft 0kts
18-Oct-18 18:49 39.506871 -119.772228 281 4429ft 0kts
18-Oct-18 18:50 39.506871 -119.772228 281 4429ft 0kts
18-Oct-18 18:51 39.506871 -119.772228 281 4429ft 0kts
18-Oct-18 18:52 39.506871 -119.772228 281 4429ft 0kts

Navigation Log

Ident Type
Flight plan parsing failed, navigation log unavailable